Time;durP1;ratioP1;P1;durP2;ratioP2;P2;SDS_P1;SDS_P2;PMS_P1;PMS_P2;Temp;Humidity;BMP_temperature;BMP_pressure;BME280_temperature;BME280_humidity;BME280_pressure;Samples;Min_cycle;Max_cycle;Signal;HPM_P1;HPM_P2
2022/04/13 00:00:09;;;;;;;5.87;1.43;;;21.20;99.90;;;;;;5076929;28;20204;-67
2022/04/13 00:02:37;;;;;;;6.53;1.30;;;21.10;99.90;;;;;;5076732;28;20174;-66
2022/04/13 00:05:06;;;;;;;10.60;1.80;;;20.90;99.90;;;;;;5076365;28;20175;-67
2022/04/13 00:07:34;;;;;;;3.73;1.17;;;20.90;99.90;;;;;;5076183;28;20176;-66
2022/04/13 00:10:01;;;;;;;4.10;1.17;;;20.70;99.90;;;;;;5076333;28;20221;-66
2022/04/13 00:12:29;;;;;;;6.20;1.30;;;20.60;99.90;;;;;;5076333;28;20181;-67
2022/04/13 00:14:57;;;;;;;3.20;1.23;;;20.80;99.90;;;;;;5076275;28;20170;-66
2022/04/13 00:17:24;;;;;;;9.10;1.60;;;20.70;99.90;;;;;;5076255;28;20178;-67
2022/04/13 00:19:52;;;;;;;10.47;1.50;;;20.40;99.90;;;;;;5076230;28;20192;-66
2022/04/13 00:22:20;;;;;;;3.73;1.47;;;20.30;99.90;;;;;;5076235;28;20182;-66
2022/04/13 00:24:48;;;;;;;3.33;1.30;;;20.30;99.90;;;;;;5076358;28;20179;-67
2022/04/13 00:27:15;;;;;;;2.93;1.33;;;20.50;99.90;;;;;;5076130;28;20238;-66
2022/04/13 00:29:43;;;;;;;2.33;1.37;;;21.10;99.90;;;;;;5075928;28;20263;-67
2022/04/13 00:32:11;;;;;;;2.80;1.13;;;21.40;99.90;;;;;;5075832;28;20624;-66
2022/04/13 00:34:39;;;;;;;2.60;0.90;;;22.20;99.90;;;;;;5076186;28;20541;-67
2022/04/13 00:37:07;;;;;;;2.73;1.10;;;22.80;99.90;;;;;;5075910;28;20228;-66
2022/04/13 00:39:35;;;;;;;5.70;1.10;;;23.20;99.90;;;;;;5075750;28;20577;-67
2022/04/13 00:42:07;;;;;;;4.40;1.27;;;23.50;99.90;;;;;;5075695;28;20179;-67
2022/04/13 00:44:35;;;;;;;13.60;1.10;;;23.90;99.90;;;;;;5075715;28;20199;-67
2022/04/13 00:47:08;;;;;;;4.37;1.00;;;24.30;99.90;;;;;;5074299;28;20196;-66
2022/04/13 00:49:37;;;;;;;3.57;1.10;;;24.00;99.90;;;;;;5075528;28;20584;-67
2022/04/13 00:52:06;;;;;;;4.33;1.00;;;23.50;99.90;;;;;;5075359;28;20220;-67
2022/04/13 00:54:35;;;;;;;3.67;0.90;;;23.30;99.90;;;;;;5074652;28;20642;-67
2022/04/13 00:57:11;;;;;;;3.47;1.03;;;22.50;99.90;;;;;;5075501;28;20180;-67
2022/04/13 00:59:40;;;;;;;4.17;0.83;;;22.50;99.90;;;;;;5075561;28;20168;-67
2022/04/13 01:02:08;;;;;;;4.13;1.00;;;23.10;99.90;;;;;;5075497;28;20529;-66
2022/04/13 01:04:37;;;;;;;2.97;0.70;;;24.00;99.90;;;;;;5075580;28;20635;-66
2022/04/13 01:07:09;;;;;;;2.10;0.80;;;24.20;99.90;;;;;;5075349;28;20175;-67
2022/04/13 01:09:40;;;;;;;3.00;1.00;;;24.90;99.90;;;;;;5075148;28;20175;-67
2022/04/13 01:12:08;;;;;;;1.27;1.10;;;24.30;99.90;;;;;;5075145;28;20719;-67
2022/04/13 01:14:36;;;;;;;2.03;1.13;;;24.30;99.90;;;;;;5075155;28;20172;-66
2022/04/13 01:17:04;;;;;;;2.63;0.90;;;23.20;99.90;;;;;;5073784;28;20232;-67
2022/04/13 01:19:32;;;;;;;1.60;0.80;;;22.60;99.90;;;;;;5074994;28;20174;-66
2022/04/13 01:22:13;;;;;;;2.93;1.10;;;23.30;99.90;;;;;;5075001;28;20176;-67
2022/04/13 01:24:40;;;;;;;7.87;1.00;;;23.60;99.90;;;;;;5075087;28;20172;-67
2022/04/13 01:27:08;;;;;;;2.93;1.10;;;24.10;99.90;;;;;;5074860;28;20172;-67
2022/04/13 01:29:36;;;;;;;1.20;0.60;;;24.40;99.90;;;;;;5074654;28;20653;-67
2022/04/13 01:32:05;;;;;;;4.43;1.00;;;24.50;99.90;;;;;;5075021;28;20601;-68
2022/04/13 01:34:33;;;;;;;4.60;0.67;;;24.90;99.90;;;;;;5074960;28;20213;-67
2022/04/13 01:37:00;;;;;;;1.70;0.70;;;24.60;99.90;;;;;;5074741;28;20660;-66
2022/04/13 01:39:29;;;;;;;3.13;0.73;;;25.10;99.90;;;;;;5074734;28;20214;-66
2022/04/13 01:41:56;;;;;;;3.13;0.70;;;25.60;99.90;;;;;;5074855;28;20164;-66
2022/04/13 01:44:24;;;;;;;1.17;0.67;;;25.10;99.90;;;;;;5074587;28;20255;-66
2022/04/13 01:46:52;;;;;;;1.53;0.50;;;25.50;99.90;;;;;;5074677;28;20270;-66
2022/04/13 01:49:19;;;;;;;1.80;0.43;;;25.30;99.90;;;;;;5074346;28;20187;-66
2022/04/13 01:51:47;;;;;;;3.30;0.90;;;25.20;99.90;;;;;;5074470;28;20212;-67
2022/04/13 01:54:15;;;;;;;0.80;0.53;;;24.50;99.90;;;;;;5074442;28;20186;-67
2022/04/13 01:56:42;;;;;;;1.47;0.60;;;24.90;99.90;;;;;;5074322;28;20262;-67
2022/04/13 01:59:10;;;;;;;1.67;0.50;;;25.60;99.90;;;;;;5074639;28;20180;-67
2022/04/13 02:01:45;;;;;;;1.60;0.50;;;25.70;99.90;;;;;;5074220;28;20176;-67
2022/04/13 02:04:20;;;;;;;0.97;0.53;;;25.10;99.90;;;;;;5074090;28;20172;-67
2022/04/13 02:06:48;;;;;;;1.37;0.50;;;22.90;99.90;;;;;;5074221;28;20199;-66
2022/04/13 02:09:17;;;;;;;0.67;0.50;;;22.30;99.90;;;;;;5072736;28;20248;-67
2022/04/13 02:11:46;;;;;;;1.37;0.50;;;21.90;99.90;;;;;;5072702;28;20211;-66
2022/04/13 02:14:14;;;;;;;1.90;0.50;;;23.30;99.90;;;;;;5073907;28;20618;-66
2022/04/13 02:16:42;;;;;;;0.87;0.40;;;23.30;99.90;;;;;;5073740;28;20626;-66
2022/04/13 02:19:12;;;;;;;1.27;0.50;;;22.40;99.90;;;;;;5072622;28;20184;-67
2022/04/13 02:21:40;;;;;;;0.93;0.43;;;22.30;99.90;;;;;;5074190;28;20188;-66
2022/04/13 02:24:08;;;;;;;1.23;0.50;;;23.40;99.90;;;;;;5065696;28;20629;-66
2022/04/13 02:26:36;;;;;;;0.37;0.33;;;23.50;99.90;;;;;;5065124;28;20188;-67
2022/04/13 02:29:04;;;;;;;1.37;0.40;;;23.50;99.90;;;;;;5059226;28;20634;-67
2022/04/13 02:31:32;;;;;;;0.50;0.40;;;23.60;99.90;;;;;;5069290;28;20219;-67
2022/04/13 02:34:03;;;;;;;1.10;0.40;;;23.90;99.90;;;;;;5071799;28;20176;-67
2022/04/13 02:36:34;;;;;;;1.07;0.50;;;23.50;99.90;;;;;;5072210;28;20210;-65
2022/04/13 02:39:02;;;;;;;0.73;0.60;;;23.50;99.90;;;;;;5072417;28;20578;-66
2022/04/13 02:41:30;;;;;;;0.90;0.50;;;23.70;99.90;;;;;;5072052;28;20234;-66
2022/04/13 02:43:57;;;;;;;1.73;0.53;;;22.80;99.90;;;;;;5072278;28;20234;-66
2022/04/13 02:46:25;;;;;;;0.80;0.40;;;23.50;99.90;;;;;;5072092;28;20182;-65
2022/04/13 02:48:53;;;;;;;1.10;0.60;;;23.60;99.90;;;;;;5072073;28;20213;-66
2022/04/13 02:51:20;;;;;;;1.67;0.50;;;23.30;99.90;;;;;;5071178;28;20207;-67
2022/04/13 02:53:48;;;;;;;1.60;0.60;;;23.30;99.90;;;;;;5066629;28;20255;-67
2022/04/13 02:56:17;;;;;;;2.70;0.70;;;23.60;99.90;;;;;;5053912;28;20184;-67
2022/04/13 02:58:45;;;;;;;0.47;0.47;;;23.90;99.90;;;;;;5069203;28;20176;-66
2022/04/13 03:01:12;;;;;;;1.43;0.60;;;24.00;99.90;;;;;;5069635;28;20215;-67
2022/04/13 03:03:40;;;;;;;3.70;0.80;;;23.90;99.90;;;;;;5073936;28;20175;-66
2022/04/13 03:06:08;;;;;;;1.23;0.60;;;23.10;99.90;;;;;;5072832;28;20213;-66
2022/04/13 03:08:36;;;;;;;0.87;0.40;;;23.60;99.90;;;;;;5075112;28;20175;-68
2022/04/13 03:11:03;;;;;;;1.73;0.70;;;23.30;99.90;;;;;;5068568;28;20203;-66
2022/04/13 03:13:31;;;;;;;0.73;0.50;;;22.60;99.90;;;;;;5071765;28;20186;-67
2022/04/13 03:15:59;;;;;;;1.93;0.57;;;22.60;99.90;;;;;;5071262;28;20226;-67
2022/04/13 03:18:26;;;;;;;2.83;0.60;;;23.40;99.90;;;;;;5071728;28;20649;-67
2022/04/13 03:20:54;;;;;;;1.10;0.63;;;23.30;99.90;;;;;;5071877;28;20179;-68
2022/04/13 03:23:22;;;;;;;1.90;1.00;;;23.80;99.90;;;;;;5075762;28;20183;-68
2022/04/13 03:25:49;;;;;;;1.60;0.70;;;22.70;99.90;;;;;;5092028;28;20681;-67
2022/04/13 03:28:17;;;;;;;5.43;1.00;;;22.10;99.90;;;;;;5091812;28;20608;-67
2022/04/13 03:30:45;;;;;;;3.10;0.90;;;22.00;99.90;;;;;;5073896;28;20207;-66
2022/04/13 03:33:12;;;;;;;3.10;0.77;;;21.50;99.90;;;;;;5071657;28;20258;-66
2022/04/13 03:35:40;;;;;;;0.70;0.60;;;21.10;99.90;;;;;;5072102;28;20176;-66
2022/04/13 03:38:08;;;;;;;0.80;0.50;;;21.10;99.90;;;;;;5071718;28;20216;-66
2022/04/13 03:40:35;;;;;;;0.90;0.60;;;21.30;99.90;;;;;;5071760;28;20232;-67
2022/04/13 03:43:03;;;;;;;2.80;0.60;;;21.40;99.90;;;;;;5070637;28;20545;-67
2022/04/13 03:45:31;;;;;;;0.47;0.47;;;21.30;99.90;;;;;;5077559;28;20175;-67
2022/04/13 03:47:58;;;;;;;0.93;0.50;;;21.30;99.90;;;;;;5067638;28;20191;-67
2022/04/13 03:50:26;;;;;;;1.77;0.60;;;21.00;99.90;;;;;;5059544;28;20591;-68
2022/04/13 03:52:54;;;;;;;1.60;0.63;;;20.70;99.90;;;;;;5060179;28;20185;-68
2022/04/13 03:55:22;;;;;;;0.80;0.80;;;20.50;99.90;;;;;;5050209;28;20250;-67
2022/04/13 03:57:53;;;;;;;1.73;0.70;;;20.40;99.90;;;;;;5051518;28;20240;-67
2022/04/13 04:00:21;;;;;;;2.50;0.63;;;20.20;99.90;;;;;;5061461;28;20188;-68
2022/04/13 04:02:48;;;;;;;1.63;0.67;;;20.10;99.90;;;;;;5071582;28;20251;-67
2022/04/13 04:05:17;;;;;;;1.40;0.60;;;20.10;99.90;;;;;;5070412;28;20250;-67
2022/04/13 04:07:45;;;;;;;1.60;0.60;;;20.30;99.90;;;;;;5052199;28;20189;-68
2022/04/13 04:10:13;;;;;;;2.60;0.57;;;20.50;99.90;;;;;;5052231;28;20190;-68
2022/04/13 04:12:42;;;;;;;0.97;0.60;;;20.20;99.90;;;;;;5060036;28;20191;-67
2022/04/13 04:15:12;;;;;;;1.43;0.60;;;20.20;99.90;;;;;;5071209;28;20222;-67
2022/04/13 04:17:39;;;;;;;0.60;0.60;;;20.00;99.90;;;;;;5071095;28;20706;-68
2022/04/13 04:20:09;;;;;;;1.17;0.70;;;20.10;99.90;;;;;;5065477;28;20287;-68
2022/04/13 04:22:37;;;;;;;0.97;0.60;;;19.90;99.90;;;;;;5071248;28;20189;-68
2022/04/13 04:25:08;;;;;;;0.73;0.40;;;20.10;99.90;;;;;;5062020;28;20187;-68
2022/04/13 04:27:35;;;;;;;0.70;0.60;;;20.10;99.90;;;;;;5053992;28;20635;-69
2022/04/13 04:30:04;;;;;;;1.87;1.00;;;20.30;99.90;;;;;;5072603;28;20203;-68
2022/04/13 04:32:32;;;;;;;0.47;0.40;;;20.30;99.90;;;;;;5055887;28;20231;-68
2022/04/13 04:35:00;;;;;;;0.50;0.50;;;20.40;99.90;;;;;;5062887;28;20178;-67
2022/04/13 04:37:28;;;;;;;1.87;0.80;;;20.30;99.90;;;;;;5074615;28;20222;-67
2022/04/13 04:39:55;;;;;;;0.83;0.50;;;20.10;99.90;;;;;;5070714;28;20184;-68
2022/04/13 04:42:24;;;;;;;1.23;0.60;;;20.40;99.90;;;;;;5054727;28;20183;-68
2022/04/13 04:44:59;;;;;;;1.20;0.50;;;20.20;99.90;;;;;;5060497;28;20276;-68
2022/04/13 04:47:27;;;;;;;0.50;0.43;;;20.20;99.90;;;;;;5055661;28;20372;-68
2022/04/13 04:49:55;;;;;;;0.60;0.60;;;20.20;99.90;;;;;;5055384;28;20658;-68
2022/04/13 04:52:22;;;;;;;1.70;0.50;;;20.40;99.90;;;;;;5054379;28;20216;-68
2022/04/13 04:54:50;;;;;;;0.83;0.40;;;20.10;99.90;;;;;;5066372;28;20195;-68
2022/04/13 04:57:18;;;;;;;0.80;0.50;;;19.90;99.90;;;;;;5074338;28;20638;-68
2022/04/13 04:59:45;;;;;;;0.80;0.60;;;20.00;99.90;;;;;;5061370;28;20592;-68
2022/04/13 05:02:13;;;;;;;1.63;0.70;;;20.20;99.90;;;;;;5071589;28;20666;-69
2022/04/13 05:04:41;;;;;;;0.50;0.50;;;20.00;99.90;;;;;;5064390;28;20642;-67
2022/04/13 05:07:08;;;;;;;1.23;0.60;;;20.00;99.90;;;;;;5074127;28;20576;-68
2022/04/13 05:09:36;;;;;;;1.00;0.70;;;20.00;99.90;;;;;;5073860;28;20595;-67
2022/04/13 05:12:04;;;;;;;0.83;0.67;;;20.30;99.90;;;;;;5071755;28;20250;-68
2022/04/13 05:14:32;;;;;;;1.30;0.67;;;20.40;99.90;;;;;;5063648;28;20264;-68
2022/04/13 05:17:00;;;;;;;1.30;0.57;;;20.80;99.90;;;;;;5073236;28;20237;-68
2022/04/13 05:19:28;;;;;;;1.40;0.80;;;20.40;99.90;;;;;;5073856;28;20203;-69
2022/04/13 05:21:56;;;;;;;1.53;0.70;;;20.10;99.90;;;;;;5054203;28;20176;-69
2022/04/13 05:24:23;;;;;;;0.43;0.40;;;20.20;99.90;;;;;;5055948;28;20181;-67
2022/04/13 05:26:51;;;;;;;0.63;0.63;;;20.00;99.90;;;;;;5073340;28;20184;-67
2022/04/13 05:29:21;;;;;;;1.03;0.70;;;20.10;99.90;;;;;;5065876;28;20201;-67
2022/04/13 05:31:49;;;;;;;0.83;0.73;;;20.10;99.90;;;;;;5054098;28;20243;-67
2022/04/13 05:34:16;;;;;;;2.03;0.77;;;20.00;99.90;;;;;;5054696;28;20195;-67
2022/04/13 05:36:44;;;;;;;1.53;0.70;;;19.60;99.90;;;;;;5073371;28;20679;-67
2022/04/13 05:39:12;;;;;;;0.70;0.60;;;19.60;99.90;;;;;;5073191;28;20185;-66
2022/04/13 05:41:40;;;;;;;1.67;0.80;;;19.30;99.90;;;;;;5072783;28;20241;-67
2022/04/13 05:44:08;;;;;;;1.87;0.70;;;19.10;99.90;;;;;;5066136;28;20204;-67
2022/04/13 05:46:35;;;;;;;1.07;0.70;;;18.80;99.90;;;;;;5070601;28;20188;-68
2022/04/13 05:49:03;;;;;;;0.90;0.77;;;18.50;99.90;;;;;;5073328;28;20575;-67
2022/04/13 05:51:31;;;;;;;0.80;0.70;;;18.40;99.90;;;;;;5073022;28;20219;-67
2022/04/13 05:53:58;;;;;;;2.63;0.70;;;18.40;99.90;;;;;;5072802;28;20653;-67
2022/04/13 05:56:27;;;;;;;0.90;0.70;;;18.20;99.90;;;;;;5054925;28;20657;-67
2022/04/13 05:58:54;;;;;;;1.63;0.77;;;18.10;99.90;;;;;;5072872;28;20173;-67
2022/04/13 06:01:22;;;;;;;1.00;0.77;;;18.30;99.90;;;;;;5073097;28;20207;-67
2022/04/13 06:03:50;;;;;;;1.40;0.73;;;17.90;99.90;;;;;;5070799;28;20188;-67
2022/04/13 06:06:17;;;;;;;1.77;0.83;;;18.00;99.90;;;;;;5058813;28;20186;-68
2022/04/13 06:08:45;;;;;;;0.93;0.70;;;17.80;99.90;;;;;;5053017;28;20226;-68
2022/04/13 06:11:13;;;;;;;1.83;0.73;;;18.00;99.90;;;;;;5063708;28;20212;-68
2022/04/13 06:13:41;;;;;;;0.70;0.70;;;17.90;99.90;;;;;;5071580;28;20532;-69
2022/04/13 06:16:09;;;;;;;2.10;0.60;;;18.20;99.90;;;;;;5072325;28;20228;-68
2022/04/13 06:18:36;;;;;;;2.90;1.07;;;18.30;99.90;;;;;;5059077;28;20189;-68
2022/04/13 06:21:04;;;;;;;3.80;1.00;;;18.20;99.90;;;;;;5072393;28;20346;-68
2022/04/13 06:23:32;;;;;;;2.63;0.93;;;18.10;99.90;;;;;;5063737;28;20188;-68
2022/04/13 06:26:00;;;;;;;1.20;1.00;;;18.30;99.90;;;;;;5065920;28;20199;-67
2022/04/13 06:28:27;;;;;;;1.80;1.30;;;18.00;99.90;;;;;;5072090;28;20321;-67
2022/04/13 06:30:55;;;;;;;1.60;1.10;;;18.10;99.90;;;;;;5072007;28;20219;-69
2022/04/13 06:33:23;;;;;;;1.80;1.20;;;18.00;99.90;;;;;;5071425;28;20227;-68
2022/04/13 06:35:51;;;;;;;1.17;1.07;;;17.90;99.90;;;;;;5063916;28;20184;-69
2022/04/13 06:38:18;;;;;;;2.90;0.90;;;17.70;99.90;;;;;;5052881;28;20199;-69
2022/04/13 06:40:46;;;;;;;0.60;0.50;;;17.60;99.90;;;;;;5071520;28;20185;-69
2022/04/13 06:43:14;;;;;;;1.33;0.70;;;17.40;99.90;;;;;;5072304;28;20237;-69
2022/04/13 06:45:42;;;;;;;1.37;0.87;;;17.20;99.90;;;;;;5060278;28;20185;-68
2022/04/13 06:48:10;;;;;;;1.10;0.80;;;17.20;99.90;;;;;;5052568;28;20192;-68
2022/04/13 06:50:38;;;;;;;1.03;0.73;;;17.20;99.90;;;;;;5055580;28;20249;-68
2022/04/13 06:53:05;;;;;;;0.87;0.80;;;17.10;99.90;;;;;;5071932;28;20192;-68
2022/04/13 06:55:34;;;;;;;3.30;0.90;;;17.20;99.90;;;;;;5071693;28;20354;-68
2022/04/13 06:58:02;;;;;;;1.90;0.90;;;17.10;99.90;;;;;;5071981;28;20180;-68
2022/04/13 07:00:30;;;;;;;2.30;1.07;;;17.10;99.90;;;;;;5060125;28;20193;-67
2022/04/13 07:02:57;;;;;;;3.13;0.90;;;17.00;99.90;;;;;;5051956;28;20179;-67
2022/04/13 07:05:29;;;;;;;1.23;0.80;;;17.10;99.90;;;;;;5051896;28;20654;-67
2022/04/13 07:07:57;;;;;;;0.83;0.63;;;16.90;99.90;;;;;;5052006;28;20204;-67
2022/04/13 07:10:28;;;;;;;1.63;0.80;;;16.90;99.90;;;;;;5051732;28;20180;-67
2022/04/13 07:12:56;;;;;;;3.77;1.00;;;17.00;99.90;;;;;;5061149;28;20183;-67
2022/04/13 07:15:24;;;;;;;1.57;1.00;;;16.90;99.90;;;;;;5070535;28;20301;-67
2022/04/13 07:17:52;;;;;;;8.07;1.23;;;16.90;99.90;;;;;;5071334;28;20257;-68
2022/04/13 07:20:20;;;;;;;1.73;1.20;;;16.60;99.90;;;;;;5070172;28;20180;-68
2022/04/13 07:22:48;;;;;;;1.30;1.17;;;16.60;99.90;;;;;;5071354;28;20190;-69
2022/04/13 07:25:18;;;;;;;1.33;1.10;;;16.70;99.90;;;;;;5068957;28;20179;-67
2022/04/13 07:27:46;;;;;;;2.07;1.10;;;16.60;99.90;;;;;;5070353;28;20172;-66
2022/04/13 07:30:15;;;;;;;3.80;1.10;;;16.70;99.90;;;;;;5071195;28;20183;-67
2022/04/13 07:32:47;;;;;;;1.70;1.13;;;16.60;99.90;;;;;;5070722;28;20207;-67
2022/04/13 07:35:16;;;;;;;1.97;1.10;;;16.70;99.90;;;;;;5071879;28;20236;-69
2022/04/13 07:37:44;;;;;;;1.70;1.10;;;16.70;99.90;;;;;;5063891;28;20199;-69
2022/04/13 07:40:14;;;;;;;3.03;1.40;;;16.70;99.90;;;;;;5051743;28;20218;-69
2022/04/13 07:42:42;;;;;;;1.30;1.20;;;16.80;99.90;;;;;;5058652;28;20176;-69
2022/04/13 07:45:10;;;;;;;3.47;1.77;;;16.80;99.90;;;;;;5071505;28;20192;-67
2022/04/13 07:47:38;;;;;;;2.40;1.17;;;16.80;99.90;;;;;;5069878;28;20169;-68
2022/04/13 07:50:07;;;;;;;3.33;1.37;;;16.90;99.90;;;;;;5070308;28;20270;-68
2022/04/13 07:52:36;;;;;;;1.87;1.60;;;16.90;99.90;;;;;;5091783;28;20214;-67
2022/04/13 07:55:05;;;;;;;3.37;1.47;;;16.80;99.90;;;;;;5071709;28;20184;-68
2022/04/13 07:57:33;;;;;;;2.30;1.30;;;16.90;99.90;;;;;;5071380;28;20229;-68
2022/04/13 08:00:00;;;;;;;3.97;1.50;;;16.90;99.90;;;;;;5067101;28;20705;-69
2022/04/13 08:02:28;;;;;;;2.20;1.70;;;16.90;99.90;;;;;;5061470;28;20190;-68
2022/04/13 08:04:58;;;;;;;3.83;1.80;;;16.90;99.90;;;;;;5090836;28;20188;-65
2022/04/13 08:07:26;;;;;;;3.50;1.90;;;16.90;99.90;;;;;;5086934;28;20184;-68
2022/04/13 08:09:54;;;;;;;3.77;1.57;;;16.90;99.90;;;;;;5075360;28;20180;-68
2022/04/13 08:12:22;;;;;;;2.40;1.73;;;16.90;99.90;;;;;;5074783;28;20211;-68
2022/04/13 08:14:50;;;;;;;4.87;1.90;;;16.90;99.90;;;;;;5068859;28;20191;-69
2022/04/13 08:17:18;;;;;;;7.33;1.90;;;16.90;99.90;;;;;;5075330;28;20210;-67
2022/04/13 08:19:45;;;;;;;3.20;1.80;;;16.90;99.90;;;;;;5079169;28;20176;-68
2022/04/13 08:22:14;;;;;;;2.97;1.80;;;16.80;99.90;;;;;;5081222;28;20172;-68
2022/04/13 08:24:41;;;;;;;2.03;1.40;;;16.90;99.90;;;;;;5074087;28;20184;-68
2022/04/13 08:27:10;;;;;;;4.43;1.50;;;16.90;99.90;;;;;;5073286;28;20183;-69
2022/04/13 08:29:37;;;;;;;3.20;1.23;;;16.90;99.90;;;;;;5056109;28;20187;-67
2022/04/13 08:32:05;;;;;;;3.20;1.40;;;17.00;99.90;;;;;;5063093;28;20705;-68
2022/04/13 08:34:34;;;;;;;4.27;1.50;;;16.80;99.90;;;;;;5054834;28;20169;-70
2022/04/13 08:37:01;;;;;;;4.17;1.40;;;16.80;99.90;;;;;;5069905;28;20184;-69
2022/04/13 08:39:29;;;;;;;2.80;1.50;;;16.70;99.90;;;;;;5072007;28;20213;-69
2022/04/13 08:41:59;;;;;;;2.60;1.73;;;16.70;99.90;;;;;;5071944;28;20183;-69
2022/04/13 08:44:56;;;;;;;4.13;1.70;;;16.70;99.90;;;;;;5074345;28;20180;-70
2022/04/13 08:47:25;;;;;;;3.87;1.70;;;16.70;99.90;;;;;;5074050;28;20267;-68
2022/04/13 08:49:53;;;;;;;3.93;1.97;;;16.80;99.90;;;;;;5073744;28;20180;-70
2022/04/13 08:52:41;;;;;;;3.27;1.67;;;16.90;99.90;;;;;;5074433;28;20264;-68
2022/04/13 08:55:11;;;;;;;2.73;1.90;;;16.80;99.90;;;;;;5074409;28;20187;-68
2022/04/13 08:57:46;;;;;;;3.07;1.93;;;16.80;99.90;;;;;;5071399;28;20198;-69
2022/04/13 09:00:17;;;;;;;3.10;1.67;;;16.70;99.90;;;;;;5062051;28;20180;-68
2022/04/13 09:03:21;;;;;;;3.47;1.73;;;16.70;99.90;;;;;;5073206;28;20538;-69
2022/04/13 09:05:52;;;;;;;3.57;1.73;;;16.60;99.90;;;;;;5074116;28;20179;-69
2022/04/13 09:08:35;;;;;;;3.67;1.67;;;16.50;99.90;;;;;;5074220;28;20180;-68
2022/04/13 09:11:04;;;;;;;3.87;1.73;;;16.50;99.90;;;;;;5074261;28;20775;-68
2022/04/13 09:13:35;;;;;;;4.77;1.60;;;16.50;99.90;;;;;;5073399;28;20180;-69
2022/04/13 09:16:04;;;;;;;3.17;1.80;;;16.40;99.90;;;;;;5071711;28;20319;-68
2022/04/13 09:18:32;;;;;;;6.60;2.23;;;16.50;99.90;;;;;;5074132;28;20180;-70
2022/04/13 09:21:01;;;;;;;8.00;2.67;;;16.50;99.90;;;;;;5074084;28;20580;-69
2022/04/13 09:23:30;;;;;;;4.80;3.07;;;16.50;99.90;;;;;;5072668;28;20188;-68
2022/04/13 09:25:58;;;;;;;5.40;2.33;;;16.50;99.90;;;;;;5073949;28;20702;-69
2022/04/13 09:28:27;;;;;;;6.20;2.43;;;16.40;99.90;;;;;;5073937;28;20288;-69
2022/04/13 09:30:55;;;;;;;6.47;2.60;;;16.40;99.90;;;;;;5073376;28;20203;-68
2022/04/13 09:33:24;;;;;;;3.00;2.20;;;16.50;99.90;;;;;;5073867;28;20259;-68
2022/04/13 09:35:55;;;;;;;6.97;2.80;;;16.50;99.90;;;;;;5073865;28;20168;-69
2022/04/13 09:38:24;;;;;;;3.23;2.07;;;16.40;99.90;;;;;;5073591;28;20179;-68
2022/04/13 09:40:52;;;;;;;2.53;2.13;;;16.40;99.90;;;;;;5073182;28;20645;-69
2022/04/13 09:43:23;;;;;;;6.87;2.27;;;16.40;99.90;;;;;;5060280;28;20189;-68
2022/04/13 09:45:55;;;;;;;4.20;2.03;;;16.40;99.90;;;;;;5053629;28;20679;-71
2022/04/13 09:48:26;;;;;;;3.77;2.27;;;16.40;99.90;;;;;;5052229;28;20187;-68
2022/04/13 09:50:56;;;;;;;5.63;2.03;;;16.40;99.90;;;;;;5053497;28;20209;-69
2022/04/13 09:53:24;;;;;;;1.97;1.73;;;16.40;99.90;;;;;;5053738;28;20188;-69
2022/04/13 09:55:59;;;;;;;3.10;1.80;;;16.50;99.90;;;;;;5055901;28;20267;-69
2022/04/13 09:58:30;;;;;;;3.27;2.00;;;16.50;99.90;;;;;;5060718;28;20601;-68
2022/04/13 10:01:03;;;;;;;3.03;1.70;;;16.30;99.90;;;;;;5072943;28;20338;-67
2022/04/13 10:03:30;;;;;;;2.97;2.00;;;16.40;99.90;;;;;;5070878;28;20176;-68
2022/04/13 10:05:59;;;;;;;4.80;2.43;;;16.40;99.90;;;;;;5063235;28;20184;-69
2022/04/13 10:08:30;;;;;;;3.13;2.00;;;16.40;99.90;;;;;;5066160;28;20199;-68
2022/04/13 10:10:59;;;;;;;1.87;1.23;;;16.60;99.90;;;;;;5073091;28;20214;-68
2022/04/13 10:13:38;;;;;;;1.97;1.17;;;16.60;99.90;;;;;;5073083;28;20237;-68
2022/04/13 10:16:08;;;;;;;1.87;1.30;;;16.60;99.90;;;;;;5062616;28;20229;-68
2022/04/13 10:18:55;;;;;;;3.50;1.57;;;16.60;99.90;;;;;;5053029;28;20168;-68
2022/04/13 10:21:49;;;;;;;1.67;1.17;;;16.60;99.90;;;;;;5052800;28;20271;-67
2022/04/13 10:24:37;;;;;;;1.30;1.20;;;16.50;99.90;;;;;;5071653;28;20254;-67
2022/04/13 10:27:19;;;;;;;2.37;1.50;;;16.50;99.90;;;;;;5070611;28;20176;-68
2022/04/13 10:29:48;;;;;;;3.27;1.50;;;16.50;99.90;;;;;;5072174;28;20180;-69
2022/04/13 10:32:18;;;;;;;2.57;1.23;;;16.50;99.90;;;;;;5070481;28;20227;-69
2022/04/13 10:34:48;;;;;;;3.50;1.30;;;16.40;99.90;;;;;;5072593;28;20207;-68
2022/04/13 10:37:19;;;;;;;4.03;0.97;;;16.40;99.90;;;;;;5062264;28;20271;-69
2022/04/13 10:39:48;;;;;;;3.30;1.40;;;16.30;99.90;;;;;;5052687;28;20176;-69
2022/04/13 10:42:17;;;;;;;3.87;1.50;;;16.30;99.90;;;;;;5052183;28;20180;-69
2022/04/13 10:45:02;;;;;;;2.00;1.13;;;16.20;99.90;;;;;;5056000;28;20178;-69
2022/04/13 10:47:42;;;;;;;2.23;1.50;;;16.30;99.90;;;;;;5069284;28;20653;-68
2022/04/13 10:50:14;;;;;;;6.33;1.60;;;16.30;99.90;;;;;;5065202;28;20266;-69
2022/04/13 10:53:06;;;;;;;1.73;1.00;;;16.30;99.90;;;;;;5072179;28;20214;-68
2022/04/13 10:55:36;;;;;;;4.67;1.97;;;16.30;99.90;;;;;;5063954;28;20185;-68
2022/04/13 10:58:19;;;;;;;3.50;2.60;;;16.30;99.90;;;;;;5053374;28;20540;-68
2022/04/13 11:00:47;;;;;;;3.00;2.00;;;16.30;99.90;;;;;;5052978;28;20260;-68
2022/04/13 11:03:16;;;;;;;5.83;2.00;;;16.20;99.90;;;;;;5053202;28;20172;-68
2022/04/13 11:05:44;;;;;;;2.60;1.83;;;16.20;99.90;;;;;;5061329;28;20729;-68
2022/04/13 11:08:29;;;;;;;2.30;1.37;;;16.30;99.90;;;;;;5070989;28;20176;-68
2022/04/13 11:10:57;;;;;;;1.73;1.13;;;16.30;99.90;;;;;;5072674;28;20260;-69
2022/04/13 11:13:30;;;;;;;1.97;1.10;;;16.30;99.90;;;;;;5072950;28;20186;-69
2022/04/13 11:16:12;;;;;;;3.40;0.90;;;16.30;99.90;;;;;;5090243;28;20221;-69
2022/04/13 11:18:40;;;;;;;2.20;1.30;;;16.30;99.90;;;;;;5053120;28;20805;-68
2022/04/13 11:21:08;;;;;;;3.33;1.27;;;16.20;99.90;;;;;;5054120;28;20187;-68
2022/04/13 11:23:55;;;;;;;2.17;1.40;;;16.30;99.90;;;;;;5069960;28;20365;-68
2022/04/13 11:26:51;;;;;;;2.43;1.20;;;16.30;99.90;;;;;;5072483;28;20175;-69
2022/04/13 11:29:23;;;;;;;2.97;1.30;;;16.30;99.90;;;;;;5070665;28;20605;-68
2022/04/13 11:32:04;;;;;;;1.83;1.37;;;16.30;99.90;;;;;;5071554;28;20208;-69
2022/04/13 11:34:45;;;;;;;2.07;1.10;;;16.20;99.90;;;;;;5064865;28;20185;-68
2022/04/13 11:37:26;;;;;;;4.50;1.53;;;16.20;99.90;;;;;;5070593;28;20190;-68
2022/04/13 11:40:03;;;;;;;3.17;1.33;;;16.20;99.90;;;;;;5078891;28;20186;-67
2022/04/13 11:42:37;;;;;;;1.87;1.33;;;16.10;99.90;;;;;;5078867;28;20317;-68
2022/04/13 11:45:14;;;;;;;2.37;1.10;;;16.10;99.90;;;;;;5077852;28;20227;-68
2022/04/13 11:47:53;;;;;;;1.53;1.20;;;16.10;99.90;;;;;;5059363;28;20255;-68
2022/04/13 11:50:26;;;;;;;2.57;1.07;;;16.00;99.90;;;;;;5064192;28;20187;-68
2022/04/13 11:53:06;;;;;;;2.50;1.40;;;15.90;99.90;;;;;;5079504;28;20245;-68
2022/04/13 11:55:46;;;;;;;2.10;1.43;;;15.90;99.90;;;;;;5078480;28;20183;-69
2022/04/13 11:58:15;;;;;;;2.20;1.73;;;15.80;99.90;;;;;;5066921;28;20188;-68
2022/04/13 12:00:59;;;;;;;4.03;1.20;;;15.70;99.90;;;;;;5068978;28;20732;-68
2022/04/13 12:03:34;;;;;;;3.57;1.87;;;15.60;99.90;;;;;;5078818;28;20179;-68
2022/04/13 12:06:03;;;;;;;1.30;1.20;;;15.60;99.90;;;;;;5079458;28;20220;-68
2022/04/13 12:08:35;;;;;;;8.37;2.00;;;15.60;99.90;;;;;;5079390;28;20587;-69
2022/04/13 12:11:07;;;;;;;5.63;1.30;;;15.60;99.90;;;;;;5061038;28;20208;-69
2022/04/13 12:13:54;;;;;;;6.47;2.00;;;15.50;99.90;;;;;;5059541;28;20230;-69
2022/04/13 12:16:23;;;;;;;2.50;1.77;;;15.50;99.90;;;;;;5077748;28;20731;-68
2022/04/13 12:18:51;;;;;;;2.37;1.47;;;15.40;99.90;;;;;;5079133;28;20216;-69
2022/04/13 12:21:22;;;;;;;3.53;1.30;;;15.40;99.90;;;;;;5059559;28;20191;-68
2022/04/13 12:23:54;;;;;;;4.17;1.73;;;15.40;99.90;;;;;;5059044;28;20587;-68
2022/04/13 12:26:50;;;;;;;2.40;1.50;;;15.40;99.90;;;;;;5057944;28;20214;-69
2022/04/13 12:29:18;;;;;;;4.53;1.43;;;15.40;99.90;;;;;;5054673;28;20242;-68
2022/04/13 12:31:56;;;;;;;4.00;1.53;;;15.30;99.90;;;;;;5077759;28;20681;-69
2022/04/13 12:34:27;;;;;;;3.80;1.40;;;15.20;99.90;;;;;;5078944;28;20179;-69
2022/04/13 12:37:06;;;;;;;1.60;1.50;;;15.20;99.90;;;;;;5079354;28;20553;-68
2022/04/13 12:39:35;;;;;;;1.63;1.30;;;15.10;99.90;;;;;;5077952;28;20221;-69
2022/04/13 12:42:05;;;;;;;4.10;1.70;;;15.10;99.90;;;;;;5079307;28;20191;-67
2022/04/13 12:44:32;;;;;;;2.37;1.47;;;15.10;99.90;;;;;;5077653;28;20279;-68
2022/04/13 12:47:07;;;;;;;3.73;1.70;;;15.10;99.90;;;;;;5079135;28;20180;-68
2022/04/13 12:49:38;;;;;;;4.60;1.77;;;15.20;99.90;;;;;;5074796;28;20275;-67
2022/04/13 12:52:07;;;;;;;3.77;2.30;;;15.10;99.90;;;;;;5075641;28;20215;-68
2022/04/13 12:54:41;;;;;;;2.17;1.60;;;15.20;99.90;;;;;;5076010;28;20172;-68
2022/04/13 12:57:11;;;;;;;3.67;1.87;;;15.20;99.90;;;;;;5074422;28;20176;-68
2022/04/13 12:59:42;;;;;;;3.40;1.80;;;15.20;99.90;;;;;;5075686;28;20665;-68